sensor_id;sensor_type;location;lat;lon;timestamp;temperature;humidity
22081;DHT22;11207;59.512;18.050;2023-07-20T00:02:00;13.90;99.90
22081;DHT22;11207;59.512;18.050;2023-07-20T00:04:26;14.00;99.90
22081;DHT22;11207;59.512;18.050;2023-07-20T00:06:51;14.10;99.90
22081;DHT22;11207;59.512;18.050;2023-07-20T00:09:17;14.00;99.90
22081;DHT22;11207;59.512;18.050;2023-07-20T00:11:49;14.10;99.90
22081;DHT22;11207;59.512;18.050;2023-07-20T00:14:18;14.00;99.90
22081;DHT22;11207;59.512;18.050;2023-07-20T00:16:45;14.00;99.90
22081;DHT22;11207;59.512;18.050;2023-07-20T00:19:14;14.10;99.90
22081;DHT22;11207;59.512;18.050;2023-07-20T00:21:42;14.10;99.90
22081;DHT22;11207;59.512;18.050;2023-07-20T00:24:08;14.10;99.90
22081;DHT22;11207;59.512;18.050;2023-07-20T00:26:33;14.20;99.90
22081;DHT22;11207;59.512;18.050;2023-07-20T00:28:59;14.10;99.90
22081;DHT22;11207;59.512;18.050;2023-07-20T00:31:25;14.20;99.90
22081;DHT22;11207;59.512;18.050;2023-07-20T00:33:51;14.10;99.90
22081;DHT22;11207;59.512;18.050;2023-07-20T00:36:16;14.10;99.90
22081;DHT22;11207;59.512;18.050;2023-07-20T00:38:42;14.20;99.90
22081;DHT22;11207;59.512;18.050;2023-07-20T00:41:08;14.20;99.90
22081;DHT22;11207;59.512;18.050;2023-07-20T00:43:33;14.30;99.90
22081;DHT22;11207;59.512;18.050;2023-07-20T00:45:59;14.20;99.90
22081;DHT22;11207;59.512;18.050;2023-07-20T00:48:25;14.20;99.90
22081;DHT22;11207;59.512;18.050;2023-07-20T00:50:50;14.20;99.90
22081;DHT22;11207;59.512;18.050;2023-07-20T00:53:16;14.30;99.90
22081;DHT22;11207;59.512;18.050;2023-07-20T00:55:42;14.30;99.90
22081;DHT22;11207;59.512;18.050;2023-07-20T00:58:08;14.30;99.90
22081;DHT22;11207;59.512;18.050;2023-07-20T01:00:34;14.30;99.90
22081;DHT22;11207;59.512;18.050;2023-07-20T01:02:59;14.20;99.90
22081;DHT22;11207;59.512;18.050;2023-07-20T01:05:35;14.20;99.90
22081;DHT22;11207;59.512;18.050;2023-07-20T01:11:01;14.30;99.90
22081;DHT22;11207;59.512;18.050;2023-07-20T01:13:29;14.30;99.90
22081;DHT22;11207;59.512;18.050;2023-07-20T01:16:01;14.30;99.90
22081;DHT22;11207;59.512;18.050;2023-07-20T01:18:27;14.30;99.90
22081;DHT22;11207;59.512;18.050;2023-07-20T01:20:59;14.30;99.90
22081;DHT22;11207;59.512;18.050;2023-07-20T01:23:55;14.20;99.90
22081;DHT22;11207;59.512;18.050;2023-07-20T01:31:52;14.20;99.90
22081;DHT22;11207;59.512;18.050;2023-07-20T01:34:19;14.30;99.90
22081;DHT22;11207;59.512;18.050;2023-07-20T01:36:48;14.20;99.90
22081;DHT22;11207;59.512;18.050;2023-07-20T01:39:16;14.20;99.90
22081;DHT22;11207;59.512;18.050;2023-07-20T01:41:42;14.20;99.90
22081;DHT22;11207;59.512;18.050;2023-07-20T01:44:08;14.20;99.90
22081;DHT22;11207;59.512;18.050;2023-07-20T01:46:34;14.30;99.90
22081;DHT22;11207;59.512;18.050;2023-07-20T01:48:59;14.30;99.90
22081;DHT22;11207;59.512;18.050;2023-07-20T01:51:25;14.20;99.90
22081;DHT22;11207;59.512;18.050;2023-07-20T01:53:50;14.30;99.90
22081;DHT22;11207;59.512;18.050;2023-07-20T01:56:16;14.20;99.90
22081;DHT22;11207;59.512;18.050;2023-07-20T01:58:42;14.20;99.90
22081;DHT22;11207;59.512;18.050;2023-07-20T02:01:07;14.10;99.90
22081;DHT22;11207;59.512;18.050;2023-07-20T02:03:33;14.10;99.90
22081;DHT22;11207;59.512;18.050;2023-07-20T02:05:58;14.20;99.90
22081;DHT22;11207;59.512;18.050;2023-07-20T02:08:24;14.20;99.90
22081;DHT22;11207;59.512;18.050;2023-07-20T02:10:50;14.10;99.90
22081;DHT22;11207;59.512;18.050;2023-07-20T02:13:16;14.00;99.90
22081;DHT22;11207;59.512;18.050;2023-07-20T02:15:41;14.10;99.90
22081;DHT22;11207;59.512;18.050;2023-07-20T02:18:08;14.00;99.90
22081;DHT22;11207;59.512;18.050;2023-07-20T02:20:34;13.90;99.90
22081;DHT22;11207;59.512;18.050;2023-07-20T02:23:00;14.00;99.90
22081;DHT22;11207;59.512;18.050;2023-07-20T02:25:25;13.90;99.90
22081;DHT22;11207;59.512;18.050;2023-07-20T02:27:52;13.90;99.90
22081;DHT22;11207;59.512;18.050;2023-07-20T02:30:18;13.80;99.90
22081;DHT22;11207;59.512;18.050;2023-07-20T02:32:43;13.80;99.90
22081;DHT22;11207;59.512;18.050;2023-07-20T02:35:16;13.80;99.90
22081;DHT22;11207;59.512;18.050;2023-07-20T02:37:42;13.80;99.90
22081;DHT22;11207;59.512;18.050;2023-07-20T02:40:08;13.80;99.90
22081;DHT22;11207;59.512;18.050;2023-07-20T02:42:35;13.80;99.90
22081;DHT22;11207;59.512;18.050;2023-07-20T02:45:02;13.70;99.90
22081;DHT22;11207;59.512;18.050;2023-07-20T02:47:29;13.70;99.90
22081;DHT22;11207;59.512;18.050;2023-07-20T02:49:54;13.70;99.90
22081;DHT22;11207;59.512;18.050;2023-07-20T02:52:20;13.70;99.90
22081;DHT22;11207;59.512;18.050;2023-07-20T02:54:45;13.50;99.90
22081;DHT22;11207;59.512;18.050;2023-07-20T02:57:11;13.60;99.90
22081;DHT22;11207;59.512;18.050;2023-07-20T02:59:36;13.60;99.90
22081;DHT22;11207;59.512;18.050;2023-07-20T03:02:02;13.50;99.90
22081;DHT22;11207;59.512;18.050;2023-07-20T03:04:28;13.50;99.90
22081;DHT22;11207;59.512;18.050;2023-07-20T03:06:54;13.40;99.90
22081;DHT22;11207;59.512;18.050;2023-07-20T03:09:19;13.50;99.90
22081;DHT22;11207;59.512;18.050;2023-07-20T03:11:45;13.50;99.90
22081;DHT22;11207;59.512;18.050;2023-07-20T03:14:11;13.50;99.90
22081;DHT22;11207;59.512;18.050;2023-07-20T03:16:36;13.40;99.90
22081;DHT22;11207;59.512;18.050;2023-07-20T03:19:02;13.50;99.90
22081;DHT22;11207;59.512;18.050;2023-07-20T03:21:28;13.60;99.90
22081;DHT22;11207;59.512;18.050;2023-07-20T03:23:54;13.40;99.90
22081;DHT22;11207;59.512;18.050;2023-07-20T03:26:20;13.50;99.90
22081;DHT22;11207;59.512;18.050;2023-07-20T03:28:45;13.50;99.90
22081;DHT22;11207;59.512;18.050;2023-07-20T03:31:11;13.50;99.90
22081;DHT22;11207;59.512;18.050;2023-07-20T03:33:37;13.50;99.90
22081;DHT22;11207;59.512;18.050;2023-07-20T03:36:02;13.40;99.90
22081;DHT22;11207;59.512;18.050;2023-07-20T03:38:28;13.40;99.90
22081;DHT22;11207;59.512;18.050;2023-07-20T03:40:56;13.60;99.90
22081;DHT22;11207;59.512;18.050;2023-07-20T03:43:23;13.40;99.90
22081;DHT22;11207;59.512;18.050;2023-07-20T03:45:50;13.60;99.90
22081;DHT22;11207;59.512;18.050;2023-07-20T03:48:16;13.50;99.90
22081;DHT22;11207;59.512;18.050;2023-07-20T03:50:44;13.50;99.90
22081;DHT22;11207;59.512;18.050;2023-07-20T03:53:11;13.50;99.90
22081;DHT22;11207;59.512;18.050;2023-07-20T03:55:36;13.50;99.90
22081;DHT22;11207;59.512;18.050;2023-07-20T03:58:02;13.40;99.90
22081;DHT22;11207;59.512;18.050;2023-07-20T04:00:28;13.60;99.90
22081;DHT22;11207;59.512;18.050;2023-07-20T04:02:54;13.60;99.90
22081;DHT22;11207;59.512;18.050;2023-07-20T04:05:20;13.50;99.90
22081;DHT22;11207;59.512;18.050;2023-07-20T04:07:45;13.50;99.90
22081;DHT22;11207;59.512;18.050;2023-07-20T04:10:11;13.60;99.90
22081;DHT22;11207;59.512;18.050;2023-07-20T04:12:37;13.60;99.90
22081;DHT22;11207;59.512;18.050;2023-07-20T04:15:02;13.60;99.90
22081;DHT22;11207;59.512;18.050;2023-07-20T04:17:29;13.60;99.90
22081;DHT22;11207;59.512;18.050;2023-07-20T04:19:54;13.70;99.90
22081;DHT22;11207;59.512;18.050;2023-07-20T04:22:20;13.70;99.90
22081;DHT22;11207;59.512;18.050;2023-07-20T04:24:46;13.70;99.90
22081;DHT22;11207;59.512;18.050;2023-07-20T04:27:12;13.80;99.90
22081;DHT22;11207;59.512;18.050;2023-07-20T04:29:37;13.90;99.90
22081;DHT22;11207;59.512;18.050;2023-07-20T04:32:03;13.90;99.90
22081;DHT22;11207;59.512;18.050;2023-07-20T04:34:29;14.00;99.90
22081;DHT22;11207;59.512;18.050;2023-07-20T04:36:54;14.00;99.90
22081;DHT22;11207;59.512;18.050;2023-07-20T04:39:20;14.10;99.90
22081;DHT22;11207;59.512;18.050;2023-07-20T04:41:46;14.20;99.90
22081;DHT22;11207;59.512;18.050;2023-07-20T04:44:12;14.30;99.90
22081;DHT22;11207;59.512;18.050;2023-07-20T04:46:39;14.50;99.90
22081;DHT22;11207;59.512;18.050;2023-07-20T04:49:05;14.80;99.90
22081;DHT22;11207;59.512;18.050;2023-07-20T04:51:31;15.10;99.90
22081;DHT22;11207;59.512;18.050;2023-07-20T04:53:57;15.50;99.90
22081;DHT22;11207;59.512;18.050;2023-07-20T04:56:23;15.90;99.90
22081;DHT22;11207;59.512;18.050;2023-07-20T04:58:49;16.20;99.90
22081;DHT22;11207;59.512;18.050;2023-07-20T05:01:15;16.60;99.90
22081;DHT22;11207;59.512;18.050;2023-07-20T05:03:41;16.90;99.90
22081;DHT22;11207;59.512;18.050;2023-07-20T05:06:06;17.00;99.90
22081;DHT22;11207;59.512;18.050;2023-07-20T05:08:32;17.20;99.90
22081;DHT22;11207;59.512;18.050;2023-07-20T05:10:57;17.10;99.90
22081;DHT22;11207;59.512;18.050;2023-07-20T05:13:24;17.20;99.90
22081;DHT22;11207;59.512;18.050;2023-07-20T05:15:53;17.30;99.90
22081;DHT22;11207;59.512;18.050;2023-07-20T05:18:20;17.20;99.90
22081;DHT22;11207;59.512;18.050;2023-07-20T05:20:50;17.20;99.90
22081;DHT22;11207;59.512;18.050;2023-07-20T05:23:19;17.50;99.90
22081;DHT22;11207;59.512;18.050;2023-07-20T05:25:54;17.70;99.90
22081;DHT22;11207;59.512;18.050;2023-07-20T05:28:20;17.90;99.90
22081;DHT22;11207;59.512;18.050;2023-07-20T05:30:46;17.90;99.90
22081;DHT22;11207;59.512;18.050;2023-07-20T05:33:11;18.00;99.90
22081;DHT22;11207;59.512;18.050;2023-07-20T05:35:37;18.10;99.90
22081;DHT22;11207;59.512;18.050;2023-07-20T05:38:03;18.00;99.90
22081;DHT22;11207;59.512;18.050;2023-07-20T05:40:30;18.00;99.90
22081;DHT22;11207;59.512;18.050;2023-07-20T05:42:56;17.80;99.90
22081;DHT22;11207;59.512;18.050;2023-07-20T05:45:22;17.80;99.90
22081;DHT22;11207;59.512;18.050;2023-07-20T05:47:48;17.80;99.90
22081;DHT22;11207;59.512;18.050;2023-07-20T05:50:13;17.80;99.90
22081;DHT22;11207;59.512;18.050;2023-07-20T05:52:40;17.70;99.90
22081;DHT22;11207;59.512;18.050;2023-07-20T05:55:06;17.70;99.90
22081;DHT22;11207;59.512;18.050;2023-07-20T05:57:32;17.70;99.90
22081;DHT22;11207;59.512;18.050;2023-07-20T05:59:58;17.70;99.90
22081;DHT22;11207;59.512;18.050;2023-07-20T06:02:23;17.70;99.90
22081;DHT22;11207;59.512;18.050;2023-07-20T06:04:49;17.60;99.90
22081;DHT22;11207;59.512;18.050;2023-07-20T06:07:15;17.50;99.90
22081;DHT22;11207;59.512;18.050;2023-07-20T06:09:40;17.40;99.90
22081;DHT22;11207;59.512;18.050;2023-07-20T06:12:07;17.50;99.90
22081;DHT22;11207;59.512;18.050;2023-07-20T06:14:32;17.60;99.90
22081;DHT22;11207;59.512;18.050;2023-07-20T06:16:58;17.70;99.90
22081;DHT22;11207;59.512;18.050;2023-07-20T06:19:24;17.90;99.90
22081;DHT22;11207;59.512;18.050;2023-07-20T06:21:50;18.00;99.90
22081;DHT22;11207;59.512;18.050;2023-07-20T06:24:18;17.90;99.90
22081;DHT22;11207;59.512;18.050;2023-07-20T06:26:44;17.70;99.90
22081;DHT22;11207;59.512;18.050;2023-07-20T06:29:09;17.80;99.90
22081;DHT22;11207;59.512;18.050;2023-07-20T06:31:36;17.60;99.90
22081;DHT22;11207;59.512;18.050;2023-07-20T06:34:02;17.70;99.90
22081;DHT22;11207;59.512;18.050;2023-07-20T06:36:28;17.60;99.90
22081;DHT22;11207;59.512;18.050;2023-07-20T06:38:54;17.70;99.90
22081;DHT22;11207;59.512;18.050;2023-07-20T06:41:19;17.70;99.90
22081;DHT22;11207;59.512;18.050;2023-07-20T06:43:45;18.00;99.90
22081;DHT22;11207;59.512;18.050;2023-07-20T06:46:11;18.00;99.90
22081;DHT22;11207;59.512;18.050;2023-07-20T06:48:36;18.20;99.90
22081;DHT22;11207;59.512;18.050;2023-07-20T06:51:02;18.40;99.90
22081;DHT22;11207;59.512;18.050;2023-07-20T06:53:28;18.40;99.90
22081;DHT22;11207;59.512;18.050;2023-07-20T06:55:54;18.50;99.90
22081;DHT22;11207;59.512;18.050;2023-07-20T06:58:22;18.50;99.90
22081;DHT22;11207;59.512;18.050;2023-07-20T07:00:47;18.50;99.90
22081;DHT22;11207;59.512;18.050;2023-07-20T07:03:13;18.40;99.90
22081;DHT22;11207;59.512;18.050;2023-07-20T07:05:39;18.20;99.90
22081;DHT22;11207;59.512;18.050;2023-07-20T07:08:05;18.40;99.90
22081;DHT22;11207;59.512;18.050;2023-07-20T07:10:31;18.40;99.90
22081;DHT22;11207;59.512;18.050;2023-07-20T07:12:56;18.40;99.90
22081;DHT22;11207;59.512;18.050;2023-07-20T07:15:22;18.60;99.90
22081;DHT22;11207;59.512;18.050;2023-07-20T07:17:48;18.70;99.90
22081;DHT22;11207;59.512;18.050;2023-07-20T07:20:14;18.80;99.90
22081;DHT22;11207;59.512;18.050;2023-07-20T07:22:39;18.70;99.90
22081;DHT22;11207;59.512;18.050;2023-07-20T07:25:05;18.60;99.90
22081;DHT22;11207;59.512;18.050;2023-07-20T07:27:31;18.50;99.90
22081;DHT22;11207;59.512;18.050;2023-07-20T07:29:56;18.70;99.90
22081;DHT22;11207;59.512;18.050;2023-07-20T07:32:22;18.90;99.90
22081;DHT22;11207;59.512;18.050;2023-07-20T07:34:47;19.40;99.90
22081;DHT22;11207;59.512;18.050;2023-07-20T07:37:14;19.50;99.90
22081;DHT22;11207;59.512;18.050;2023-07-20T07:39:39;19.40;99.90
22081;DHT22;11207;59.512;18.050;2023-07-20T07:42:05;19.20;99.90
22081;DHT22;11207;59.512;18.050;2023-07-20T07:44:31;19.30;99.90
22081;DHT22;11207;59.512;18.050;2023-07-20T07:46:57;19.50;99.90
22081;DHT22;11207;59.512;18.050;2023-07-20T07:49:23;19.90;99.90
22081;DHT22;11207;59.512;18.050;2023-07-20T07:51:48;20.40;99.90
22081;DHT22;11207;59.512;18.050;2023-07-20T07:54:14;20.70;99.90
22081;DHT22;11207;59.512;18.050;2023-07-20T07:56:40;20.10;99.90
22081;DHT22;11207;59.512;18.050;2023-07-20T07:59:06;20.30;99.90
22081;DHT22;11207;59.512;18.050;2023-07-20T08:01:32;20.00;99.90
22081;DHT22;11207;59.512;18.050;2023-07-20T08:03:57;20.10;99.90
22081;DHT22;11207;59.512;18.050;2023-07-20T08:06:23;20.10;99.90
22081;DHT22;11207;59.512;18.050;2023-07-20T08:08:49;20.20;99.90
22081;DHT22;11207;59.512;18.050;2023-07-20T08:11:15;20.50;99.90
22081;DHT22;11207;59.512;18.050;2023-07-20T08:13:41;21.00;99.90
22081;DHT22;11207;59.512;18.050;2023-07-20T08:16:07;21.20;99.90
22081;DHT22;11207;59.512;18.050;2023-07-20T08:18:33;21.60;99.90
22081;DHT22;11207;59.512;18.050;2023-07-20T08:20:58;21.90;99.90
22081;DHT22;11207;59.512;18.050;2023-07-20T08:23:24;22.00;99.90
22081;DHT22;11207;59.512;18.050;2023-07-20T08:25:49;22.20;99.90
22081;DHT22;11207;59.512;18.050;2023-07-20T08:28:16;22.30;99.90
22081;DHT22;11207;59.512;18.050;2023-07-20T08:30:48;22.60;99.90
22081;DHT22;11207;59.512;18.050;2023-07-20T08:33:15;22.60;99.90
22081;DHT22;11207;59.512;18.050;2023-07-20T08:35:41;22.40;99.90
22081;DHT22;11207;59.512;18.050;2023-07-20T08:38:07;21.90;99.90
22081;DHT22;11207;59.512;18.050;2023-07-20T08:40:44;21.40;99.90
22081;DHT22;11207;59.512;18.050;2023-07-20T08:43:10;21.10;99.90
22081;DHT22;11207;59.512;18.050;2023-07-20T08:45:38;20.90;99.90
22081;DHT22;11207;59.512;18.050;2023-07-20T08:48:06;21.40;99.90
22081;DHT22;11207;59.512;18.050;2023-07-20T08:50:33;21.40;99.90
22081;DHT22;11207;59.512;18.050;2023-07-20T08:53:00;21.50;99.90
22081;DHT22;11207;59.512;18.050;2023-07-20T08:55:29;21.60;99.90
22081;DHT22;11207;59.512;18.050;2023-07-20T08:57:56;22.00;99.90
22081;DHT22;11207;59.512;18.050;2023-07-20T09:00:23;21.70;99.90
22081;DHT22;11207;59.512;18.050;2023-07-20T09:02:56;21.40;99.90
22081;DHT22;11207;59.512;18.050;2023-07-20T09:05:23;20.90;99.90
22081;DHT22;11207;59.512;18.050;2023-07-20T09:07:50;20.80;99.90
22081;DHT22;11207;59.512;18.050;2023-07-20T09:10:16;20.60;99.90
22081;DHT22;11207;59.512;18.050;2023-07-20T09:12:43;20.60;99.90
22081;DHT22;11207;59.512;18.050;2023-07-20T09:15:10;21.10;99.90
22081;DHT22;11207;59.512;18.050;2023-07-20T09:17:36;21.60;99.90
22081;DHT22;11207;59.512;18.050;2023-07-20T09:20:08;22.10;99.90
22081;DHT22;11207;59.512;18.050;2023-07-20T09:22:39;22.70;99.90
22081;DHT22;11207;59.512;18.050;2023-07-20T09:25:07;22.90;99.90
22081;DHT22;11207;59.512;18.050;2023-07-20T09:27:40;23.00;98.40
22081;DHT22;11207;59.512;18.050;2023-07-20T09:30:06;22.70;99.00
22081;DHT22;11207;59.512;18.050;2023-07-20T09:32:39;23.00;99.90
22081;DHT22;11207;59.512;18.050;2023-07-20T09:35:06;23.30;97.30
22081;DHT22;11207;59.512;18.050;2023-07-20T09:37:33;23.30;96.80
22081;DHT22;11207;59.512;18.050;2023-07-20T09:39:59;23.50;97.90
22081;DHT22;11207;59.512;18.050;2023-07-20T09:42:25;24.00;98.60
22081;DHT22;11207;59.512;18.050;2023-07-20T09:44:52;24.40;96.50
22081;DHT22;11207;59.512;18.050;2023-07-20T09:47:22;24.30;94.40
22081;DHT22;11207;59.512;18.050;2023-07-20T09:49:48;24.70;94.10
22081;DHT22;11207;59.512;18.050;2023-07-20T09:52:13;24.80;95.20
22081;DHT22;11207;59.512;18.050;2023-07-20T09:54:40;24.90;93.90
22081;DHT22;11207;59.512;18.050;2023-07-20T09:57:09;25.10;93.10
22081;DHT22;11207;59.512;18.050;2023-07-20T09:59:35;24.60;92.90
22081;DHT22;11207;59.512;18.050;2023-07-20T10:02:04;24.60;94.70
22081;DHT22;11207;59.512;18.050;2023-07-20T10:04:34;24.40;93.70
22081;DHT22;11207;59.512;18.050;2023-07-20T10:07:05;24.20;93.90
22081;DHT22;11207;59.512;18.050;2023-07-20T10:09:35;23.90;93.50
22081;DHT22;11207;59.512;18.050;2023-07-20T10:12:03;23.60;93.60
22081;DHT22;11207;59.512;18.050;2023-07-20T10:14:30;23.10;92.90
22081;DHT22;11207;59.512;18.050;2023-07-20T10:17:01;23.10;94.40
22081;DHT22;11207;59.512;18.050;2023-07-20T10:19:49;22.80;95.00
22081;DHT22;11207;59.512;18.050;2023-07-20T10:22:19;22.30;95.40
22081;DHT22;11207;59.512;18.050;2023-07-20T10:24:46;22.30;95.40
22081;DHT22;11207;59.512;18.050;2023-07-20T10:27:13;22.20;94.80
22081;DHT22;11207;59.512;18.050;2023-07-20T10:29:40;22.00;94.60
22081;DHT22;11207;59.512;18.050;2023-07-20T10:32:06;22.00;93.30
22081;DHT22;11207;59.512;18.050;2023-07-20T10:34:33;22.20;93.60
22081;DHT22;11207;59.512;18.050;2023-07-20T10:36:59;22.10;93.40
22081;DHT22;11207;59.512;18.050;2023-07-20T10:39:25;22.20;94.40
22081;DHT22;11207;59.512;18.050;2023-07-20T10:42:06;22.50;94.90
22081;DHT22;11207;59.512;18.050;2023-07-20T10:44:32;22.50;94.10
22081;DHT22;11207;59.512;18.050;2023-07-20T10:47:09;23.00;94.40
22081;DHT22;11207;59.512;18.050;2023-07-20T10:49:58;23.00;93.80
22081;DHT22;11207;59.512;18.050;2023-07-20T10:52:25;22.80;93.70
22081;DHT22;11207;59.512;18.050;2023-07-20T10:54:51;23.20;95.50
22081;DHT22;11207;59.512;18.050;2023-07-20T10:57:27;23.20;94.10
22081;DHT22;11207;59.512;18.050;2023-07-20T11:00:12;23.90;96.00
22081;DHT22;11207;59.512;18.050;2023-07-20T11:02:47;24.30;92.60
22081;DHT22;11207;59.512;18.050;2023-07-20T11:05:33;24.40;91.90
22081;DHT22;11207;59.512;18.050;2023-07-20T11:08:38;24.50;91.50
22081;DHT22;11207;59.512;18.050;2023-07-20T11:13:58;24.70;90.60
22081;DHT22;11207;59.512;18.050;2023-07-20T11:16:41;25.10;91.30
22081;DHT22;11207;59.512;18.050;2023-07-20T11:19:19;24.80;88.50
22081;DHT22;11207;59.512;18.050;2023-07-20T11:21:46;24.70;85.30
22081;DHT22;11207;59.512;18.050;2023-07-20T11:24:14;25.00;92.30
22081;DHT22;11207;59.512;18.050;2023-07-20T11:26:41;25.70;89.20
22081;DHT22;11207;59.512;18.050;2023-07-20T11:29:07;25.50;87.60
22081;DHT22;11207;59.512;18.050;2023-07-20T11:31:38;25.50;84.60
22081;DHT22;11207;59.512;18.050;2023-07-20T11:34:03;25.50;83.90
22081;DHT22;11207;59.512;18.050;2023-07-20T11:36:29;25.20;86.30
22081;DHT22;11207;59.512;18.050;2023-07-20T11:38:55;25.20;85.40
22081;DHT22;11207;59.512;18.050;2023-07-20T11:41:21;24.90;81.80
22081;DHT22;11207;59.512;18.050;2023-07-20T11:43:47;24.80;84.90
22081;DHT22;11207;59.512;18.050;2023-07-20T11:46:13;25.20;84.70
22081;DHT22;11207;59.512;18.050;2023-07-20T11:48:38;25.20;82.20
22081;DHT22;11207;59.512;18.050;2023-07-20T11:51:05;25.10;83.00
22081;DHT22;11207;59.512;18.050;2023-07-20T11:53:31;24.80;83.50
22081;DHT22;11207;59.512;18.050;2023-07-20T11:55:59;24.40;81.40
22081;DHT22;11207;59.512;18.050;2023-07-20T11:58:24;24.30;83.90
22081;DHT22;11207;59.512;18.050;2023-07-20T12:00:54;24.60;85.20
22081;DHT22;11207;59.512;18.050;2023-07-20T12:03:20;24.70;80.90
22081;DHT22;11207;59.512;18.050;2023-07-20T12:05:45;25.30;91.90
22081;DHT22;11207;59.512;18.050;2023-07-20T12:08:11;25.20;81.00
22081;DHT22;11207;59.512;18.050;2023-07-20T12:10:39;25.20;83.00
22081;DHT22;11207;59.512;18.050;2023-07-20T12:13:10;25.20;81.90
22081;DHT22;11207;59.512;18.050;2023-07-20T12:15:37;25.50;81.70
22081;DHT22;11207;59.512;18.050;2023-07-20T12:18:03;25.70;89.00
22081;DHT22;11207;59.512;18.050;2023-07-20T12:23:01;26.00;84.40
22081;DHT22;11207;59.512;18.050;2023-07-20T12:25:40;25.40;83.50
22081;DHT22;11207;59.512;18.050;2023-07-20T12:28:11;24.90;83.60
22081;DHT22;11207;59.512;18.050;2023-07-20T12:30:38;24.50;81.00
22081;DHT22;11207;59.512;18.050;2023-07-20T12:33:04;24.20;85.00
22081;DHT22;11207;59.512;18.050;2023-07-20T12:35:30;24.10;83.10
22081;DHT22;11207;59.512;18.050;2023-07-20T12:37:57;24.00;82.10
22081;DHT22;11207;59.512;18.050;2023-07-20T12:40:22;23.90;84.90
22081;DHT22;11207;59.512;18.050;2023-07-20T12:42:48;24.30;91.80
22081;DHT22;11207;59.512;18.050;2023-07-20T12:45:14;24.00;85.30
22081;DHT22;11207;59.512;18.050;2023-07-20T12:47:40;23.60;87.10
22081;DHT22;11207;59.512;18.050;2023-07-20T12:50:08;23.80;93.70
22081;DHT22;11207;59.512;18.050;2023-07-20T12:52:38;24.60;89.00
22081;DHT22;11207;59.512;18.050;2023-07-20T12:55:05;24.40;83.10
22081;DHT22;11207;59.512;18.050;2023-07-20T12:57:32;24.30;88.00
22081;DHT22;11207;59.512;18.050;2023-07-20T12:59:58;24.40;89.10
22081;DHT22;11207;59.512;18.050;2023-07-20T13:02:23;24.80;85.40
22081;DHT22;11207;59.512;18.050;2023-07-20T13:04:49;24.70;84.10
22081;DHT22;11207;59.512;18.050;2023-07-20T13:07:15;24.80;81.70
22081;DHT22;11207;59.512;18.050;2023-07-20T13:09:40;24.70;83.10
22081;DHT22;11207;59.512;18.050;2023-07-20T13:12:06;24.30;84.70
22081;DHT22;11207;59.512;18.050;2023-07-20T13:14:32;24.40;84.40
22081;DHT22;11207;59.512;18.050;2023-07-20T13:16:57;24.50;83.00
22081;DHT22;11207;59.512;18.050;2023-07-20T13:19:23;24.50;81.90
22081;DHT22;11207;59.512;18.050;2023-07-20T13:21:49;24.20;85.90
22081;DHT22;11207;59.512;18.050;2023-07-20T13:24:15;24.30;85.20
22081;DHT22;11207;59.512;18.050;2023-07-20T13:26:41;24.20;85.90
22081;DHT22;11207;59.512;18.050;2023-07-20T13:29:07;24.10;82.50
22081;DHT22;11207;59.512;18.050;2023-07-20T13:31:32;24.10;83.30
22081;DHT22;11207;59.512;18.050;2023-07-20T13:33:58;24.30;81.10
22081;DHT22;11207;59.512;18.050;2023-07-20T13:36:25;24.30;80.40
22081;DHT22;11207;59.512;18.050;2023-07-20T13:38:50;24.10;81.50
22081;DHT22;11207;59.512;18.050;2023-07-20T13:41:16;24.00;82.70
22081;DHT22;11207;59.512;18.050;2023-07-20T13:43:44;23.70;84.50
22081;DHT22;11207;59.512;18.050;2023-07-20T13:46:10;23.30;85.30
22081;DHT22;11207;59.512;18.050;2023-07-20T13:48:35;23.40;82.90
22081;DHT22;11207;59.512;18.050;2023-07-20T13:51:01;23.30;84.00
22081;DHT22;11207;59.512;18.050;2023-07-20T13:53:26;23.50;85.20
22081;DHT22;11207;59.512;18.050;2023-07-20T13:55:53;23.50;85.00
22081;DHT22;11207;59.512;18.050;2023-07-20T13:58:18;23.50;86.10
22081;DHT22;11207;59.512;18.050;2023-07-20T14:00:44;23.30;86.50
22081;DHT22;11207;59.512;18.050;2023-07-20T14:03:10;23.20;88.50
22081;DHT22;11207;59.512;18.050;2023-07-20T14:05:35;23.40;87.10
22081;DHT22;11207;59.512;18.050;2023-07-20T14:08:01;23.20;87.00
22081;DHT22;11207;59.512;18.050;2023-07-20T14:10:27;23.20;89.40
22081;DHT22;11207;59.512;18.050;2023-07-20T14:12:52;23.00;90.00
22081;DHT22;11207;59.512;18.050;2023-07-20T14:15:18;22.80;90.70
22081;DHT22;11207;59.512;18.050;2023-07-20T14:17:44;22.70;90.00
22081;DHT22;11207;59.512;18.050;2023-07-20T14:20:10;22.70;88.20
22081;DHT22;11207;59.512;18.050;2023-07-20T14:22:36;22.40;90.20
22081;DHT22;11207;59.512;18.050;2023-07-20T14:25:02;22.50;90.10
22081;DHT22;11207;59.512;18.050;2023-07-20T14:27:28;22.40;89.10
22081;DHT22;11207;59.512;18.050;2023-07-20T14:29:53;22.30;89.30
22081;DHT22;11207;59.512;18.050;2023-07-20T14:32:19;22.30;90.10
22081;DHT22;11207;59.512;18.050;2023-07-20T14:34:44;22.00;90.00
22081;DHT22;11207;59.512;18.050;2023-07-20T14:37:10;21.80;90.70
22081;DHT22;11207;59.512;18.050;2023-07-20T14:39:36;21.90;90.60
22081;DHT22;11207;59.512;18.050;2023-07-20T14:42:01;21.90;90.20
22081;DHT22;11207;59.512;18.050;2023-07-20T14:44:29;22.00;89.30
22081;DHT22;11207;59.512;18.050;2023-07-20T14:46:54;21.80;88.40
22081;DHT22;11207;59.512;18.050;2023-07-20T14:49:21;21.80;90.10
22081;DHT22;11207;59.512;18.050;2023-07-20T14:51:46;21.80;90.60
22081;DHT22;11207;59.512;18.050;2023-07-20T14:54:13;21.70;91.30
22081;DHT22;11207;59.512;18.050;2023-07-20T14:56:39;21.90;90.10
22081;DHT22;11207;59.512;18.050;2023-07-20T14:59:09;21.80;89.10
22081;DHT22;11207;59.512;18.050;2023-07-20T15:01:35;21.80;89.30
22081;DHT22;11207;59.512;18.050;2023-07-20T15:04:00;21.70;89.60
22081;DHT22;11207;59.512;18.050;2023-07-20T15:06:26;21.60;90.30
22081;DHT22;11207;59.512;18.050;2023-07-20T15:08:52;21.50;90.30
22081;DHT22;11207;59.512;18.050;2023-07-20T15:11:17;21.50;90.10
22081;DHT22;11207;59.512;18.050;2023-07-20T15:13:43;21.50;90.40
22081;DHT22;11207;59.512;18.050;2023-07-20T15:16:09;21.40;91.30
22081;DHT22;11207;59.512;18.050;2023-07-20T15:18:37;21.50;91.20
22081;DHT22;11207;59.512;18.050;2023-07-20T15:21:03;21.50;91.00
22081;DHT22;11207;59.512;18.050;2023-07-20T15:23:29;21.50;90.50
22081;DHT22;11207;59.512;18.050;2023-07-20T15:25:55;21.40;90.90
22081;DHT22;11207;59.512;18.050;2023-07-20T15:28:21;21.50;91.00